createdAt,value
2023-02-28T00:00:38.035Z,4.30
2023-02-28T00:05:39.575Z,4.40
2023-02-28T00:10:41.137Z,4.82
2023-02-28T00:15:42.650Z,5.05
2023-02-28T00:20:44.158Z,4.22
2023-02-28T00:25:45.798Z,4.47
2023-02-28T00:30:47.890Z,4.68
2023-02-28T00:35:49.800Z,4.38
2023-02-28T00:40:51.462Z,5.05
2023-02-28T00:45:53.043Z,5.10
2023-02-28T00:50:54.815Z,5.03
2023-02-28T00:55:56.332Z,4.80
2023-02-28T01:00:57.908Z,4.55
2023-02-28T01:05:59.685Z,4.28
2023-02-28T01:11:09.534Z,4.85
2023-02-28T01:16:11.166Z,5.32
2023-02-28T01:21:15.840Z,5.18
2023-02-28T01:26:22.223Z,4.30
2023-02-28T01:31:24.904Z,4.80
2023-02-28T01:36:26.631Z,5.00
2023-02-28T01:41:32.160Z,4.78
2023-02-28T01:46:36.612Z,5.05
2023-02-28T01:51:54.035Z,5.15
2023-02-28T01:56:59.091Z,4.75
2023-02-28T02:02:01.498Z,5.25
2023-02-28T02:07:03.717Z,5.00
2023-02-28T02:12:31.664Z,4.70
2023-02-28T02:17:39.528Z,5.40
2023-02-28T02:23:09.100Z,5.13
2023-02-28T02:28:44.702Z,5.70
2023-02-28T02:34:27.163Z,5.35
2023-02-28T02:39:41.854Z,5.65
2023-02-28T02:44:58.014Z,5.55
2023-02-28T02:50:05.640Z,5.55
2023-02-28T02:55:12.057Z,5.68
2023-02-28T03:00:16.698Z,5.85
2023-02-28T03:05:29.504Z,6.13
2023-02-28T03:10:41.252Z,6.00
2023-02-28T03:15:56.724Z,6.30
2023-02-28T03:21:21.538Z,6.30
2023-02-28T03:26:26.696Z,5.82
2023-02-28T03:31:34.276Z,6.50
2023-02-28T03:36:46.882Z,6.43
2023-02-28T03:41:58.578Z,7.07
2023-02-28T03:47:18.717Z,7.00
2023-02-28T03:52:24.508Z,6.50
2023-02-28T03:57:41.059Z,7.38
2023-02-28T04:02:42.659Z,7.75
2023-02-28T04:07:44.161Z,7.72
2023-02-28T04:12:45.639Z,7.88
2023-02-28T04:17:47.178Z,8.25
2023-02-28T04:22:48.720Z,7.90
2023-02-28T04:27:50.181Z,7.82
2023-02-28T04:32:51.665Z,9.00
2023-02-28T04:37:53.233Z,8.30
2023-02-28T04:42:54.731Z,8.48
2023-02-28T04:47:56.268Z,8.35
2023-02-28T04:52:57.847Z,8.52
2023-02-28T04:57:59.336Z,9.85
2023-02-28T05:03:00.883Z,8.30
2023-02-28T05:08:02.430Z,8.85
2023-02-28T05:13:04.257Z,8.93
2023-02-28T05:18:05.837Z,8.93
2023-02-28T05:23:07.460Z,9.05
2023-02-28T05:28:09.199Z,9.10
2023-02-28T05:33:12.281Z,9.38
2023-02-28T05:38:13.818Z,9.40
2023-02-28T05:43:15.293Z,9.35
2023-02-28T05:48:17.789Z,9.95
2023-02-28T05:53:19.312Z,9.20
2023-02-28T05:58:21.875Z,9.20
2023-02-28T06:03:23.403Z,9.52
2023-02-28T06:08:24.946Z,8.77
2023-02-28T06:13:26.453Z,9.27
2023-02-28T06:18:28.313Z,8.95
2023-02-28T06:23:30.627Z,9.55
2023-02-28T06:28:33.127Z,10.10
2023-02-28T06:33:35.201Z,9.05
2023-02-28T06:38:37.442Z,9.43
2023-02-28T06:43:42.093Z,9.57
2023-02-28T06:48:45.684Z,9.45
2023-02-28T06:53:47.478Z,9.13
2023-02-28T06:58:50.715Z,8.35
2023-02-28T07:03:53.612Z,8.70
2023-02-28T07:08:55.628Z,8.23
2023-02-28T07:13:57.888Z,8.32
2023-02-28T07:18:59.728Z,8.77
2023-02-28T07:24:01.404Z,8.23
2023-02-28T07:29:03.257Z,9.43
2023-02-28T07:34:04.783Z,8.27
2023-02-28T07:39:06.283Z,7.63
2023-02-28T07:44:07.834Z,9.38
2023-02-28T07:49:09.425Z,8.70
2023-02-28T07:54:11.011Z,8.98
2023-02-28T07:59:12.715Z,9.02
2023-02-28T08:04:14.216Z,9.48
2023-02-28T08:09:15.775Z,9.13
2023-02-28T08:14:17.356Z,9.82
2023-02-28T08:19:18.964Z,8.45
2023-02-28T08:24:20.515Z,9.68
2023-02-28T08:29:22.462Z,9.15
2023-02-28T08:34:24.133Z,9.98
2023-02-28T08:39:25.795Z,8.98
2023-02-28T08:44:28.295Z,10.00
2023-02-28T08:49:29.887Z,9.02
2023-02-28T08:54:33.261Z,8.82
2023-02-28T08:59:34.867Z,9.45
2023-02-28T09:04:36.441Z,9.93
2023-02-28T09:09:38.092Z,9.43
2023-02-28T09:14:39.872Z,9.32
2023-02-28T09:19:41.536Z,8.90
2023-02-28T09:24:43.149Z,9.32
2023-02-28T09:29:44.727Z,9.60
2023-02-28T09:34:46.272Z,8.65
2023-02-28T09:39:48.110Z,8.45
2023-02-28T09:44:51.175Z,9.38
2023-02-28T09:49:53.204Z,9.30
2023-02-28T09:54:56.064Z,9.13
2023-02-28T10:00:12.889Z,9.30
2023-02-28T10:05:18.457Z,9.80
2023-02-28T10:10:25.480Z,9.02
2023-02-28T10:15:31.335Z,8.75
2023-02-28T10:20:41.061Z,9.05
2023-02-28T10:25:49.034Z,8.30
2023-02-28T10:30:53.006Z,9.43
2023-02-28T10:35:55.539Z,9.20
2023-02-28T10:41:11.612Z,9.50
2023-02-28T10:46:26.879Z,9.02
2023-02-28T10:51:37.589Z,9.82
2023-02-28T10:56:39.148Z,8.25
2023-02-28T11:01:42.342Z,8.45
2023-02-28T11:06:44.171Z,9.07
2023-02-28T11:11:48.235Z,8.48
2023-02-28T11:16:51.509Z,8.63
2023-02-28T11:22:00.396Z,9.18
2023-02-28T11:27:02.536Z,8.60
2023-02-28T11:32:23.847Z,9.10
2023-02-28T11:37:25.553Z,10.00
2023-02-28T11:42:47.109Z,8.90
2023-02-28T11:48:15.897Z,6.97
2023-02-28T11:53:17.730Z,8.43
2023-02-28T11:58:34.650Z,8.43
2023-02-28T12:03:59.150Z,7.55
2023-02-28T12:09:28.218Z,7.93
2023-02-28T12:14:43.456Z,8.23
2023-02-28T12:20:06.979Z,7.90
2023-02-28T12:25:08.708Z,7.95
2023-02-28T12:30:31.086Z,8.15
2023-02-28T12:35:42.039Z,9.38
2023-02-28T12:41:00.760Z,9.15
2023-02-28T12:46:12.251Z,8.18
2023-02-28T12:51:16.418Z,9.55
2023-02-28T12:56:25.873Z,8.48
2023-02-28T13:01:49.684Z,7.90
2023-02-28T13:07:10.300Z,9.15
2023-02-28T13:12:16.734Z,8.88
2023-02-28T13:17:22.175Z,8.43
2023-02-28T13:22:26.714Z,8.45
2023-02-28T13:27:41.414Z,8.73
2023-02-28T13:32:43.317Z,8.60
2023-02-28T13:37:46.016Z,8.85
2023-02-28T13:42:50.612Z,8.48
2023-02-28T13:48:26.320Z,7.70
2023-02-28T13:53:58.231Z,8.73
2023-02-28T13:59:13.711Z,8.68
2023-02-28T14:04:53.673Z,7.85
2023-02-28T14:10:09.676Z,8.50
2023-02-28T14:15:33.380Z,8.02
2023-02-28T14:20:35.448Z,8.30
2023-02-28T14:25:57.252Z,7.60
2023-02-28T14:31:08.855Z,8.00
2023-02-28T14:36:17.506Z,7.32
2023-02-28T14:41:32.307Z,7.90
2023-02-28T14:46:40.876Z,8.43
2023-02-28T14:51:43.319Z,7.88
2023-02-28T14:56:45.033Z,7.95
2023-02-28T15:01:46.893Z,8.60
2023-02-28T15:07:08.440Z,8.07
2023-02-28T15:12:15.355Z,7.18
2023-02-28T15:17:25.986Z,7.55
2023-02-28T15:22:36.945Z,7.70
2023-02-28T15:27:47.327Z,7.72
2023-02-28T15:33:21.664Z,7.90
2023-02-28T15:38:28.341Z,8.30
2023-02-28T15:43:32.473Z,7.65
2023-02-28T15:48:38.280Z,8.32
2023-02-28T15:53:50.820Z,8.45
2023-02-28T15:58:57.410Z,8.07
2023-02-28T16:04:03.872Z,9.00
2023-02-28T16:09:08.874Z,8.80
2023-02-28T16:14:16.688Z,9.75
2023-02-28T16:19:18.673Z,9.23
2023-02-28T16:24:20.298Z,10.30
2023-02-28T16:29:35.873Z,8.88
2023-02-28T16:34:37.404Z,9.55
2023-02-28T16:39:39.014Z,10.45
2023-02-28T16:44:41.261Z,10.25
2023-02-28T16:49:44.039Z,9.95
2023-02-28T16:54:45.619Z,12.45
2023-02-28T16:59:47.319Z,11.70
2023-02-28T17:04:48.886Z,12.20
2023-02-28T17:09:50.421Z,10.93
2023-02-28T17:14:51.922Z,11.50
2023-02-28T17:19:53.444Z,12.50
2023-02-28T17:24:58.554Z,12.15
2023-02-28T17:30:00.840Z,12.32
2023-02-28T17:35:02.354Z,12.65
2023-02-28T17:40:05.121Z,13.43
2023-02-28T17:45:07.132Z,13.10
2023-02-28T17:50:15.617Z,14.30
2023-02-28T17:55:17.408Z,14.38
2023-02-28T18:00:19.443Z,13.93
2023-02-28T18:05:21.054Z,14.27
2023-02-28T18:10:23.078Z,14.30
2023-02-28T18:15:24.720Z,14.18
2023-02-28T18:20:27.037Z,15.10
2023-02-28T18:25:28.576Z,15.70
2023-02-28T18:30:33.016Z,17.00
2023-02-28T18:35:35.129Z,16.13
2023-02-28T18:40:37.947Z,15.85
2023-02-28T18:45:39.902Z,17.25
2023-02-28T18:50:42.083Z,15.13
2023-02-28T18:55:43.916Z,14.73
2023-02-28T19:00:47.876Z,16.80
2023-02-28T19:05:50.743Z,16.35
2023-02-28T19:10:52.926Z,15.70
2023-02-28T19:16:01.969Z,16.08
2023-02-28T19:21:03.931Z,16.63
2023-02-28T19:26:10.720Z,16.13
2023-02-28T19:31:14.310Z,17.00
2023-02-28T19:36:16.141Z,17.02
2023-02-28T19:41:18.311Z,17.95
2023-02-28T19:46:20.225Z,16.30
2023-02-28T19:51:22.791Z,16.48
2023-02-28T19:56:24.629Z,15.77
2023-02-28T20:01:26.195Z,17.90
2023-02-28T20:06:28.040Z,15.57
2023-02-28T20:11:29.848Z,16.52
2023-02-28T20:16:32.453Z,17.05
2023-02-28T20:21:34.566Z,16.85
2023-02-28T20:26:37.155Z,18.42
2023-02-28T20:31:38.758Z,17.77
2023-02-28T20:36:40.347Z,17.77
2023-02-28T20:41:41.947Z,17.35
2023-02-28T20:46:43.815Z,17.67
2023-02-28T20:51:45.505Z,16.98
2023-02-28T20:56:47.530Z,17.45
2023-02-28T21:01:49.177Z,17.67
2023-02-28T21:06:51.951Z,18.55
2023-02-28T21:11:54.323Z,17.63
2023-02-28T21:16:55.893Z,18.08
2023-02-28T21:21:58.484Z,17.33
2023-02-28T21:27:01.171Z,16.95
2023-02-28T21:32:02.871Z,16.83
2023-02-28T21:37:05.801Z,17.90
2023-02-28T21:42:08.844Z,16.63
2023-02-28T21:47:10.538Z,17.77
2023-02-28T21:52:12.114Z,16.90
2023-02-28T21:57:14.173Z,17.20
2023-02-28T22:02:15.974Z,18.08
2023-02-28T22:07:18.180Z,17.65
2023-02-28T22:12:19.767Z,17.52
2023-02-28T22:17:21.271Z,18.25
2023-02-28T22:22:22.848Z,17.55
2023-02-28T22:27:24.356Z,17.13
2023-02-28T22:32:25.986Z,18.50
2023-02-28T22:37:27.524Z,17.63
2023-02-28T22:42:32.857Z,18.33
2023-02-28T22:47:34.434Z,18.08
2023-02-28T22:52:39.646Z,19.05
2023-02-28T22:57:41.236Z,16.77
2023-02-28T23:02:43.694Z,18.33
2023-02-28T23:07:46.063Z,17.15
2023-02-28T23:12:50.502Z,17.90
2023-02-28T23:17:52.094Z,18.80
2023-02-28T23:22:53.618Z,16.80
2023-02-28T23:27:55.136Z,17.40
2023-02-28T23:32:56.648Z,17.75
2023-02-28T23:38:02.612Z,18.10
2023-02-28T23:43:04.329Z,18.63
2023-02-28T23:48:06.292Z,17.92
2023-02-28T23:53:08.317Z,17.83
2023-02-28T23:58:09.845Z,16.77
